Terminal Aerodrome Forecast
Issued by NWS Charleston, WV

Current Version | Previous Version | Graphics & Text | Print | Product List | Glossary On
Versions: 1 2 3 4 5 6 7 8 9 10 11 12 13 14 15 16 17 18 19 20 21 22 23 24 25 26 27 28
128
FTUS41 KRLX 192334
TAFPKB
TAF
KPKB 192334Z 2000/2024 00000KT P6SM VCSH BKN070
     FM200700 00000KT 5SM BR BKN050
     FM201100 00000KT 1SM BR BKN001
     FM201300 00000KT 3SM BR BKN040
     FM201400 26003KT P6SM BKN035=

USA.gov is the U.S. government's official web portal to all federal, state and local government web resources and services.